PWSweather.com
Personal Weather Stations
Station Observations
DW6359
Southwest Cambria, Cambria, WI 53923

Southwest CambriaCambria, WI 53923

Lat: 43.541194, Lon: -89.11275

Elevation: 945

Station Type: Davis Vantage Pro2

http://home.centurytel.net/weathercambria/wxcambria.html

Latest ConditionsUpdated 8:30:10 PM CST Friday, Feb 23, 2018
Currently Today's Max Today's Min Today's Average
Temperature 30.4°F-0.9°C 36.6°F2.6°C 30.4°F-0.9°C 34.7°F1.5°C
Dew Point 25.6°F-3.6°C 33.2°F0.7°C 25.5°F-3.6°C 30.7°F-0.7°C
Winds 4.0 mph NW6.4 kmh NW 17.0 mph W27.4 kmh W - 4.5 mph 7.2 kmh
Wind Gusts -- 19.0 mph30.6 kmh - -
Humidity 82% 89% 77% 85%
Pressure 30.34 in1027.4 mb 30.36 in1028.1 mb 30.13 in1020.3 mb -
Precipitation - 0.12 in3.0 mm - -
Hour Temp Dew Point Humidity Winds Wind Gusts Pressure Precip Precip Rate Daily Precip Total
08:30 PM 30.4°F-0.9°C 25.6°F-3.6°C 82% 4.0 mph NW6.4 kmh NW -- 30.34 in1027.4 mb 0.00 in0.0 mm 0.00 in0.0 mm 0.12 in3.0 mm
08:25 PM 30.5°F-0.8°C 25.7°F-3.5°C 82% 2.0 mph NW3.2 kmh NW -- 30.34 in1027.4 mb 0.00 in0.0 mm 0.00 in0.0 mm 0.12 in3.0 mm
08:20 PM 30.6°F-0.8°C 25.8°F-3.4°C 82% 3.0 mph NW4.8 kmh NW -- 30.34 in1027.4 mb 0.00 in0.0 mm 0.00 in0.0 mm 0.12 in3.0 mm
08:15 PM 30.6°F-0.8°C 25.5°F-3.6°C 81% 6.0 mph WNW9.7 kmh WNW -- 30.34 in1027.4 mb 0.00 in0.0 mm 0.00 in0.0 mm 0.12 in3.0 mm
08:10 PM 30.7°F-0.7°C 25.6°F-3.6°C 81% 7.0 mph WNW11.3 kmh WNW -- 30.34 in1027.4 mb 0.00 in0.0 mm 0.00 in0.0 mm 0.12 in3.0 mm
08:05 PM 30.8°F-0.7°C 25.7°F-3.5°C 81% 3.0 mph NNW4.8 kmh NNW 8.0 mph12.9 kmh 30.34 in1027.4 mb 0.00 in0.0 mm 0.00 in0.0 mm 0.12 in3.0 mm
08:00 PM 30.8°F-0.7°C 26.0°F-3.3°C 82% 4.0 mph NW6.4 kmh NW 8.0 mph12.9 kmh 30.34 in1027.4 mb 0.00 in0.0 mm 0.00 in0.0 mm 0.12 in3.0 mm
07:55 PM 30.9°F-0.6°C 26.1°F-3.3°C 82% 4.0 mph NW6.4 kmh NW -- 30.34 in1027.4 mb 0.00 in0.0 mm 0.00 in0.0 mm 0.12 in3.0 mm
07:50 PM 31.0°F-0.6°C 26.2°F-3.2°C 82% 3.0 mph NW4.8 kmh NW -- 30.33 in1027.1 mb 0.00 in0.0 mm 0.00 in0.0 mm 0.12 in3.0 mm
07:45 PM 31.1°F-0.5°C 26.3°F-3.2°C 82% 6.0 mph WNW9.7 kmh WNW -- 30.33 in1027.1 mb 0.00 in0.0 mm 0.00 in0.0 mm 0.12 in3.0 mm
07:40 PM 31.2°F-0.4°C 26.4°F-3.1°C 82% 5.0 mph NW8.0 kmh NW -- 30.33 in1027.1 mb 0.00 in0.0 mm 0.00 in0.0 mm 0.12 in3.0 mm
07:35 PM 31.3°F-0.4°C 26.2°F-3.2°C 81% 2.0 mph NW3.2 kmh NW -- 30.33 in1027.1 mb 0.00 in0.0 mm 0.00 in0.0 mm 0.12 in3.0 mm
07:30 PM 31.5°F-0.3°C 26.4°F-3.1°C 81% 5.0 mph NW8.0 kmh NW -- 30.33 in1027.1 mb 0.00 in0.0 mm 0.00 in0.0 mm 0.12 in3.0 mm
07:25 PM 31.6°F-0.2°C 26.5°F-3.1°C 81% 4.0 mph NW6.4 kmh NW -- 30.33 in1027.1 mb 0.00 in0.0 mm 0.00 in0.0 mm 0.12 in3.0 mm
07:20 PM 31.7°F-0.2°C 26.5°F-3.1°C 81% 3.0 mph NW4.8 kmh NW -- 30.33 in1027.1 mb 0.00 in0.0 mm 0.00 in0.0 mm 0.12 in3.0 mm
07:15 PM 31.9°F-0.1°C 26.7°F-2.9°C 81% 3.0 mph NW4.8 kmh NW 8.0 mph12.9 kmh 30.33 in1027.1 mb 0.00 in0.0 mm 0.00 in0.0 mm 0.12 in3.0 mm
07:10 PM 32.1°F0.1°C 26.6°F-3.0°C 80% 3.0 mph NW4.8 kmh NW 8.0 mph12.9 kmh 30.33 in1027.1 mb 0.00 in0.0 mm 0.00 in0.0 mm 0.12 in3.0 mm
07:05 PM 32.2°F0.1°C 26.7°F-2.9°C 80% 4.0 mph NW6.4 kmh NW -- 30.33 in1027.1 mb 0.00 in0.0 mm 0.00 in0.0 mm 0.12 in3.0 mm
07:00 PM 32.4°F0.2°C 26.9°F-2.8°C 80% 5.0 mph NW8.0 kmh NW -- 30.33 in1027.1 mb 0.00 in0.0 mm 0.00 in0.0 mm 0.12 in3.0 mm
06:55 PM 32.5°F0.3°C 27.0°F-2.8°C 80% 4.0 mph WNW6.4 kmh WNW -- 30.32 in1026.8 mb 0.00 in0.0 mm 0.00 in0.0 mm 0.12 in3.0 mm
06:50 PM 32.7°F0.4°C 27.2°F-2.7°C 80% 6.0 mph NW9.7 kmh NW -- 30.32 in1026.8 mb 0.00 in0.0 mm 0.00 in0.0 mm 0.12 in3.0 mm
06:45 PM 32.8°F0.4°C 27.3°F-2.6°C 80% 3.0 mph NW4.8 kmh NW -- 30.32 in1026.8 mb 0.00 in0.0 mm 0.00 in0.0 mm 0.12 in3.0 mm
06:40 PM 33.0°F0.6°C 27.5°F-2.5°C 80% 5.0 mph WNW8.0 kmh WNW -- 30.32 in1026.8 mb 0.00 in0.0 mm 0.00 in0.0 mm 0.12 in3.0 mm
06:35 PM 33.1°F0.6°C 27.6°F-2.4°C 80% 3.0 mph NNW4.8 kmh NNW -- 30.32 in1026.8 mb 0.00 in0.0 mm 0.00 in0.0 mm 0.12 in3.0 mm
06:30 PM 33.1°F0.6°C 27.6°F-2.4°C 80% 4.0 mph NW6.4 kmh NW -- 30.32 in1026.8 mb 0.00 in0.0 mm 0.00 in0.0 mm 0.12 in3.0 mm
06:25 PM 33.2°F0.7°C 27.7°F-2.4°C 80% 4.0 mph NW6.4 kmh NW 10.0 mph16.1 kmh 30.31 in1026.4 mb 0.00 in0.0 mm 0.00 in0.0 mm 0.12 in3.0 mm
06:20 PM 33.3°F0.7°C 27.8°F-2.3°C 80% 4.0 mph NW6.4 kmh NW 10.0 mph16.1 kmh 30.31 in1026.4 mb 0.00 in0.0 mm 0.00 in0.0 mm 0.12 in3.0 mm
06:15 PM 33.4°F0.8°C 27.9°F-2.3°C 80% 5.0 mph NW8.0 kmh NW -- 30.31 in1026.4 mb 0.00 in0.0 mm 0.00 in0.0 mm 0.12 in3.0 mm
06:10 PM 33.5°F0.8°C 28.0°F-2.2°C 80% 4.0 mph WNW6.4 kmh WNW -- 30.31 in1026.4 mb 0.00 in0.0 mm 0.00 in0.0 mm 0.12 in3.0 mm
06:05 PM 33.7°F0.9°C 28.2°F-2.1°C 80% 6.0 mph NW9.7 kmh NW -- 30.31 in1026.4 mb 0.00 in0.0 mm 0.00 in0.0 mm 0.12 in3.0 mm
06:00 PM 33.8°F1.0°C 28.3°F-2.1°C 80% 7.0 mph W11.3 kmh W -- 30.31 in1026.4 mb 0.00 in0.0 mm 0.00 in0.0 mm 0.12 in3.0 mm
05:55 PM 33.9°F1.1°C 28.4°F-2.0°C 80% 6.0 mph NW9.7 kmh NW -- 30.30 in1026.1 mb 0.00 in0.0 mm 0.00 in0.0 mm 0.12 in3.0 mm
05:50 PM 34.1°F1.2°C 28.3°F-2.1°C 79% 3.0 mph WNW4.8 kmh WNW -- 30.30 in1026.1 mb 0.00 in0.0 mm 0.00 in0.0 mm 0.12 in3.0 mm
05:45 PM 34.2°F1.2°C 28.4°F-2.0°C 79% 6.0 mph WNW9.7 kmh WNW -- 30.30 in1026.1 mb 0.00 in0.0 mm 0.00 in0.0 mm 0.12 in3.0 mm
05:40 PM 34.3°F1.3°C 28.5°F-1.9°C 79% 5.0 mph NW8.0 kmh NW -- 30.30 in1026.1 mb 0.00 in0.0 mm 0.00 in0.0 mm 0.12 in3.0 mm
05:35 PM 34.4°F1.3°C 28.6°F-1.9°C 79% 4.0 mph W6.4 kmh W 8.0 mph12.9 kmh 30.30 in1026.1 mb 0.00 in0.0 mm 0.00 in0.0 mm 0.12 in3.0 mm
05:30 PM 34.6°F1.4°C 28.8°F-1.8°C 79% 4.0 mph W6.4 kmh W 8.0 mph12.9 kmh 30.30 in1026.1 mb 0.00 in0.0 mm 0.00 in0.0 mm 0.12 in3.0 mm
05:25 PM 34.7°F1.5°C 28.9°F-1.7°C 79% 4.0 mph WNW6.4 kmh WNW -- 30.30 in1026.1 mb 0.00 in0.0 mm 0.00 in0.0 mm 0.12 in3.0 mm
05:20 PM 34.9°F1.6°C 28.7°F-1.8°C 78% 2.0 mph W3.2 kmh W -- 30.30 in1026.1 mb 0.00 in0.0 mm 0.00 in0.0 mm 0.12 in3.0 mm
05:15 PM 35.0°F1.7°C 28.8°F-1.8°C 78% 2.0 mph WNW3.2 kmh WNW -- 30.30 in1026.1 mb 0.00 in0.0 mm 0.00 in0.0 mm 0.12 in3.0 mm
05:10 PM 35.1°F1.7°C 28.9°F-1.7°C 78% 3.0 mph WNW4.8 kmh WNW -- 30.29 in1025.7 mb 0.00 in0.0 mm 0.00 in0.0 mm 0.12 in3.0 mm
05:05 PM 35.2°F1.8°C 29.0°F-1.7°C 78% 7.0 mph W11.3 kmh W -- 30.29 in1025.7 mb 0.00 in0.0 mm 0.00 in0.0 mm 0.12 in3.0 mm
05:00 PM 35.3°F1.8°C 29.1°F-1.6°C 78% 3.0 mph NW4.8 kmh NW -- 30.29 in1025.7 mb 0.00 in0.0 mm 0.00 in0.0 mm 0.12 in3.0 mm
04:55 PM 35.5°F1.9°C 29.3°F-1.5°C 78% 4.0 mph WNW6.4 kmh WNW -- 30.29 in1025.7 mb 0.00 in0.0 mm 0.00 in0.0 mm 0.12 in3.0 mm
04:50 PM 35.6°F2.0°C 29.1°F-1.6°C 77% 3.0 mph NW4.8 kmh NW -- 30.29 in1025.7 mb 0.00 in0.0 mm 0.00 in0.0 mm 0.12 in3.0 mm
04:45 PM 35.7°F2.1°C 29.2°F-1.6°C 77% 7.0 mph WSW11.3 kmh WSW 14.0 mph22.5 kmh 30.28 in1025.4 mb 0.00 in0.0 mm 0.00 in0.0 mm 0.12 in3.0 mm
04:40 PM 35.8°F2.1°C 29.3°F-1.5°C 77% 6.0 mph NW9.7 kmh NW 14.0 mph22.5 kmh 30.28 in1025.4 mb 0.00 in0.0 mm 0.00 in0.0 mm 0.12 in3.0 mm
04:35 PM 35.9°F2.2°C 29.4°F-1.4°C 77% 5.0 mph W8.0 kmh W -- 30.28 in1025.4 mb 0.00 in0.0 mm 0.00 in0.0 mm 0.12 in3.0 mm
04:30 PM 35.9°F2.2°C 29.4°F-1.4°C 77% 8.0 mph WNW12.9 kmh WNW -- 30.27 in1025.1 mb 0.00 in0.0 mm 0.00 in0.0 mm 0.12 in3.0 mm
04:25 PM 35.9°F2.2°C 29.7°F-1.3°C 78% 4.0 mph NW6.4 kmh NW -- 30.27 in1025.1 mb 0.00 in0.0 mm 0.00 in0.0 mm 0.12 in3.0 mm
04:20 PM 35.9°F2.2°C 29.7°F-1.3°C 78% 7.0 mph WSW11.3 kmh WSW -- 30.27 in1025.1 mb 0.00 in0.0 mm 0.00 in0.0 mm 0.12 in3.0 mm
04:15 PM 36.0°F2.2°C 29.8°F-1.2°C 78% 5.0 mph W8.0 kmh W -- 30.27 in1025.1 mb 0.00 in0.0 mm 0.00 in0.0 mm 0.12 in3.0 mm
04:10 PM 36.1°F2.3°C 29.9°F-1.2°C 78% 8.0 mph WNW12.9 kmh WNW -- 30.26 in1024.7 mb 0.00 in0.0 mm 0.00 in0.0 mm 0.12 in3.0 mm
04:05 PM 36.1°F2.3°C 29.6°F-1.3°C 77% 5.0 mph WNW8.0 kmh WNW -- 30.26 in1024.7 mb 0.00 in0.0 mm 0.00 in0.0 mm 0.12 in3.0 mm
04:00 PM 36.2°F2.3°C 29.7°F-1.3°C 77% 7.0 mph SW11.3 kmh SW -- 30.27 in1025.1 mb 0.00 in0.0 mm 0.00 in0.0 mm 0.12 in3.0 mm
03:55 PM 36.1°F2.3°C 29.6°F-1.3°C 77% 7.0 mph NW11.3 kmh NW 16.0 mph25.7 kmh 30.26 in1024.7 mb 0.00 in0.0 mm 0.00 in0.0 mm 0.12 in3.0 mm
03:50 PM 36.2°F2.3°C 30.0°F-1.1°C 78% 11.0 mph NW17.7 kmh NW 16.0 mph25.7 kmh 30.26 in1024.7 mb 0.00 in0.0 mm 0.00 in0.0 mm 0.12 in3.0 mm
03:45 PM 36.2°F2.3°C 29.7°F-1.3°C 77% 10.0 mph WSW16.1 kmh WSW -- 30.26 in1024.7 mb 0.00 in0.0 mm 0.00 in0.0 mm 0.12 in3.0 mm
03:40 PM 36.2°F2.3°C 29.7°F-1.3°C 77% 14.0 mph W22.5 kmh W -- 30.25 in1024.4 mb 0.00 in0.0 mm 0.00 in0.0 mm 0.12 in3.0 mm
03:35 PM 36.4°F2.4°C 29.9°F-1.2°C 77% 11.0 mph WNW17.7 kmh WNW -- 30.25 in1024.4 mb 0.00 in0.0 mm 0.00 in0.0 mm 0.12 in3.0 mm
03:30 PM 36.4°F2.4°C 30.2°F-1.0°C 78% 7.0 mph W11.3 kmh W -- 30.25 in1024.4 mb 0.00 in0.0 mm 0.00 in0.0 mm 0.12 in3.0 mm
03:25 PM 36.4°F2.4°C 30.5°F-0.8°C 79% 7.0 mph W11.3 kmh W -- 30.25 in1024.4 mb 0.00 in0.0 mm 0.00 in0.0 mm 0.12 in3.0 mm
03:20 PM 36.4°F2.4°C 30.5°F-0.8°C 79% 7.0 mph WSW11.3 kmh WSW -- 30.25 in1024.4 mb 0.00 in0.0 mm 0.00 in0.0 mm 0.12 in3.0 mm
03:15 PM 36.3°F2.4°C 30.1°F-1.1°C 78% 9.0 mph W14.5 kmh W -- 30.25 in1024.4 mb 0.00 in0.0 mm 0.00 in0.0 mm 0.12 in3.0 mm
03:10 PM 36.3°F2.4°C 30.1°F-1.1°C 78% 3.0 mph W4.8 kmh W -- 30.24 in1024.0 mb 0.00 in0.0 mm 0.00 in0.0 mm 0.12 in3.0 mm
03:05 PM 36.4°F2.4°C 30.2°F-1.0°C 78% 5.0 mph WNW8.0 kmh WNW 19.0 mph30.6 kmh 30.24 in1024.0 mb 0.00 in0.0 mm 0.00 in0.0 mm 0.12 in3.0 mm
03:00 PM 36.4°F2.4°C 30.2°F-1.0°C 78% 9.0 mph W14.5 kmh W 19.0 mph30.6 kmh 30.24 in1024.0 mb 0.00 in0.0 mm 0.00 in0.0 mm 0.12 in3.0 mm
02:55 PM 36.4°F2.4°C 30.5°F-0.8°C 79% 12.0 mph W19.3 kmh W -- 30.24 in1024.0 mb 0.00 in0.0 mm 0.00 in0.0 mm 0.12 in3.0 mm
02:50 PM 36.3°F2.4°C 30.1°F-1.1°C 78% 9.0 mph W14.5 kmh W -- 30.24 in1024.0 mb 0.00 in0.0 mm 0.00 in0.0 mm 0.12 in3.0 mm
02:45 PM 36.4°F2.4°C 30.5°F-0.8°C 79% 7.0 mph WSW11.3 kmh WSW -- 30.23 in1023.7 mb 0.00 in0.0 mm 0.00 in0.0 mm 0.12 in3.0 mm
02:40 PM 36.4°F2.4°C 30.5°F-0.8°C 79% 8.0 mph W12.9 kmh W -- 30.24 in1024.0 mb 0.00 in0.0 mm 0.00 in0.0 mm 0.12 in3.0 mm
02:35 PM 36.4°F2.4°C 30.8°F-0.7°C 80% 8.0 mph WSW12.9 kmh WSW -- 30.24 in1024.0 mb 0.00 in0.0 mm 0.00 in0.0 mm 0.12 in3.0 mm
02:30 PM 36.2°F2.3°C 30.9°F-0.6°C 81% 10.0 mph WSW16.1 kmh WSW -- 30.23 in1023.7 mb 0.00 in0.0 mm 0.00 in0.0 mm 0.12 in3.0 mm
02:25 PM 36.2°F2.3°C 30.9°F-0.6°C 81% 11.0 mph WSW17.7 kmh WSW -- 30.23 in1023.7 mb 0.00 in0.0 mm 0.00 in0.0 mm 0.12 in3.0 mm
02:20 PM 36.2°F2.3°C 30.9°F-0.6°C 81% 7.0 mph W11.3 kmh W -- 30.23 in1023.7 mb 0.00 in0.0 mm 0.00 in0.0 mm 0.12 in3.0 mm
02:15 PM 36.3°F2.4°C 31.3°F-0.4°C 82% 7.0 mph SW11.3 kmh SW 13.0 mph20.9 kmh 30.23 in1023.7 mb 0.00 in0.0 mm 0.00 in0.0 mm 0.12 in3.0 mm
02:10 PM 36.3°F2.4°C 31.0°F-0.6°C 81% 8.0 mph WSW12.9 kmh WSW 13.0 mph20.9 kmh 30.23 in1023.7 mb 0.00 in0.0 mm 0.00 in0.0 mm 0.12 in3.0 mm
02:05 PM 36.4°F2.4°C 31.4°F-0.3°C 82% 10.0 mph WSW16.1 kmh WSW -- 30.23 in1023.7 mb 0.00 in0.0 mm 0.00 in0.0 mm 0.12 in3.0 mm
02:00 PM 36.3°F2.4°C 31.3°F-0.4°C 82% 9.0 mph WSW14.5 kmh WSW -- 30.23 in1023.7 mb 0.00 in0.0 mm 0.00 in0.0 mm 0.12 in3.0 mm
01:55 PM 36.3°F2.4°C 31.0°F-0.6°C 81% 10.0 mph WSW16.1 kmh WSW -- 30.23 in1023.7 mb 0.00 in0.0 mm 0.00 in0.0 mm 0.12 in3.0 mm
01:50 PM 36.2°F2.3°C 30.9°F-0.6°C 81% 10.0 mph SW16.1 kmh SW -- 30.22 in1023.4 mb 0.00 in0.0 mm 0.00 in0.0 mm 0.12 in3.0 mm
01:45 PM 36.3°F2.4°C 31.3°F-0.4°C 82% 5.0 mph WSW8.0 kmh WSW -- 30.22 in1023.4 mb 0.00 in0.0 mm 0.00 in0.0 mm 0.12 in3.0 mm
01:40 PM 36.4°F2.4°C 31.7°F-0.2°C 83% 6.0 mph SW9.7 kmh SW -- 30.22 in1023.4 mb 0.00 in0.0 mm 0.00 in0.0 mm 0.12 in3.0 mm
01:35 PM 36.4°F2.4°C 31.7°F-0.2°C 83% 6.0 mph WSW9.7 kmh WSW -- 30.21 in1023.0 mb 0.00 in0.0 mm 0.00 in0.0 mm 0.12 in3.0 mm
01:30 PM 36.6°F2.6°C 31.9°F-0.1°C 83% 7.0 mph SW11.3 kmh SW -- 30.21 in1023.0 mb 0.00 in0.0 mm 0.00 in0.0 mm 0.12 in3.0 mm
01:25 PM 36.6°F2.6°C 32.2°F0.1°C 84% 7.0 mph W11.3 kmh W 12.0 mph19.3 kmh 30.21 in1023.0 mb 0.00 in0.0 mm 0.00 in0.0 mm 0.12 in3.0 mm
01:20 PM 36.4°F2.4°C 32.0°F0.0°C 84% 4.0 mph W6.4 kmh W 12.0 mph19.3 kmh 30.21 in1023.0 mb 0.00 in0.0 mm 0.00 in0.0 mm 0.12 in3.0 mm
01:15 PM 36.3°F2.4°C 31.9°F-0.1°C 84% 4.0 mph SW6.4 kmh SW -- 30.21 in1023.0 mb 0.00 in0.0 mm 0.00 in0.0 mm 0.12 in3.0 mm
01:10 PM 36.1°F2.3°C 31.7°F-0.2°C 84% 10.0 mph WNW16.1 kmh WNW -- 30.21 in1023.0 mb 0.00 in0.0 mm 0.00 in0.0 mm 0.12 in3.0 mm
01:05 PM 36.0°F2.2°C 31.9°F-0.1°C 85% 9.0 mph W14.5 kmh W -- 30.20 in1022.7 mb 0.00 in0.0 mm 0.00 in0.0 mm 0.12 in3.0 mm
01:00 PM 35.9°F2.2°C 31.8°F-0.1°C 85% 8.0 mph WSW12.9 kmh WSW -- 30.20 in1022.7 mb 0.00 in0.0 mm 0.00 in0.0 mm 0.12 in3.0 mm
12:55 PM 36.0°F2.2°C 32.2°F0.1°C 86% 5.0 mph WNW8.0 kmh WNW -- 30.20 in1022.7 mb 0.00 in0.0 mm 0.00 in0.0 mm 0.12 in3.0 mm
12:50 PM 36.0°F2.2°C 32.2°F0.1°C 86% 1.0 mph WSW1.6 kmh WSW -- 30.20 in1022.7 mb 0.00 in0.0 mm 0.00 in0.0 mm 0.12 in3.0 mm
12:45 PM 36.1°F2.3°C 32.3°F0.2°C 86% 10.0 mph WSW16.1 kmh WSW -- 30.20 in1022.7 mb 0.00 in0.0 mm 0.00 in0.0 mm 0.12 in3.0 mm
12:40 PM 36.1°F2.3°C 32.3°F0.2°C 86% 7.0 mph SW11.3 kmh SW -- 30.20 in1022.7 mb 0.00 in0.0 mm 0.00 in0.0 mm 0.12 in3.0 mm
12:35 PM 36.3°F2.4°C 32.2°F0.1°C 85% 6.0 mph WSW9.7 kmh WSW 12.0 mph19.3 kmh 30.20 in1022.7 mb 0.00 in0.0 mm 0.00 in0.0 mm 0.12 in3.0 mm
12:30 PM 36.6°F2.6°C 32.8°F0.4°C 86% 2.0 mph SW3.2 kmh SW 12.0 mph19.3 kmh 30.20 in1022.7 mb 0.00 in0.0 mm 0.00 in0.0 mm 0.12 in3.0 mm
12:25 PM 36.5°F2.5°C 32.7°F0.4°C 86% 5.0 mph W8.0 kmh W -- 30.20 in1022.7 mb 0.00 in0.0 mm 0.00 in0.0 mm 0.12 in3.0 mm
12:20 PM 36.3°F2.4°C 32.5°F0.3°C 86% 10.0 mph WNW16.1 kmh WNW -- 30.20 in1022.7 mb 0.00 in0.0 mm 0.00 in0.0 mm 0.12 in3.0 mm
12:15 PM 36.0°F2.2°C 32.5°F0.3°C 87% 6.0 mph WSW9.7 kmh WSW -- 30.21 in1023.0 mb 0.00 in0.0 mm 0.00 in0.0 mm 0.12 in3.0 mm
12:10 PM 35.9°F2.2°C 32.4°F0.2°C 87% 5.0 mph W8.0 kmh W -- 30.20 in1022.7 mb 0.00 in0.0 mm 0.00 in0.0 mm 0.12 in3.0 mm
12:05 PM 36.1°F2.3°C 32.9°F0.5°C 88% 9.0 mph WSW14.5 kmh WSW -- 30.20 in1022.7 mb 0.00 in0.0 mm 0.00 in0.0 mm 0.12 in3.0 mm
12:00 PM 36.1°F2.3°C 32.9°F0.5°C 88% 3.0 mph WSW4.8 kmh WSW -- 30.20 in1022.7 mb 0.00 in0.0 mm 0.00 in0.0 mm 0.12 in3.0 mm
11:55 AM 36.1°F2.3°C 32.9°F0.5°C 88% 9.0 mph WSW14.5 kmh WSW -- 30.21 in1023.0 mb 0.00 in0.0 mm 0.00 in0.0 mm 0.12 in3.0 mm
11:50 AM 35.9°F2.2°C 32.7°F0.4°C 88% 6.0 mph WNW9.7 kmh WNW -- 30.21 in1023.0 mb 0.00 in0.0 mm 0.00 in0.0 mm 0.12 in3.0 mm
11:45 AM 35.9°F2.2°C 33.0°F0.6°C 89% 2.0 mph SSW3.2 kmh SSW 11.0 mph17.7 kmh 30.21 in1023.0 mb 0.00 in0.0 mm 0.00 in0.0 mm 0.12 in3.0 mm
11:40 AM 35.7°F2.1°C 32.5°F0.3°C 88% 6.0 mph WNW9.7 kmh WNW 11.0 mph17.7 kmh 30.21 in1023.0 mb 0.00 in0.0 mm 0.00 in0.0 mm 0.12 in3.0 mm
11:35 AM 35.6°F2.0°C 32.7°F0.4°C 89% 5.0 mph SW8.0 kmh SW -- 30.21 in1023.0 mb 0.00 in0.0 mm 0.00 in0.0 mm 0.12 in3.0 mm
11:30 AM 35.6°F2.0°C 32.7°F0.4°C 89% 2.0 mph SW3.2 kmh SW -- 30.21 in1023.0 mb 0.00 in0.0 mm 0.00 in0.0 mm 0.12 in3.0 mm
11:25 AM 35.5°F1.9°C 32.6°F0.3°C 89% 2.0 mph SW3.2 kmh SW -- 30.21 in1023.0 mb 0.00 in0.0 mm 0.00 in0.0 mm 0.12 in3.0 mm
11:20 AM 35.4°F1.9°C 32.5°F0.3°C 89% 3.0 mph WSW4.8 kmh WSW -- 30.21 in1023.0 mb 0.00 in0.0 mm 0.00 in0.0 mm 0.12 in3.0 mm
11:15 AM 35.3°F1.8°C 32.4°F0.2°C 89% 6.0 mph WSW9.7 kmh WSW -- 30.21 in1023.0 mb 0.00 in0.0 mm 0.00 in0.0 mm 0.12 in3.0 mm
11:10 AM 35.2°F1.8°C 32.3°F0.2°C 89% 10.0 mph SW16.1 kmh SW -- 30.21 in1023.0 mb 0.00 in0.0 mm 0.00 in0.0 mm 0.12 in3.0 mm
11:05 AM 35.1°F1.7°C 32.2°F0.1°C 89% 3.0 mph WSW4.8 kmh WSW -- 30.21 in1023.0 mb 0.00 in0.0 mm 0.00 in0.0 mm 0.12 in3.0 mm
11:00 AM 35.1°F1.7°C 32.2°F0.1°C 89% 2.0 mph WSW3.2 kmh WSW -- 30.21 in1023.0 mb 0.00 in0.0 mm 0.00 in0.0 mm 0.12 in3.0 mm
10:55 AM 35.0°F1.7°C 32.1°F0.1°C 89% 2.0 mph WSW3.2 kmh WSW 13.0 mph20.9 kmh 30.20 in1022.7 mb 0.00 in0.0 mm 0.00 in0.0 mm 0.12 in3.0 mm
10:50 AM 34.9°F1.6°C 32.0°F0.0°C 89% 4.0 mph W6.4 kmh W 13.0 mph20.9 kmh 30.20 in1022.7 mb 0.00 in0.0 mm 0.00 in0.0 mm 0.12 in3.0 mm
10:45 AM 34.9°F1.6°C 32.0°F0.0°C 89% 9.0 mph W14.5 kmh W -- 30.21 in1023.0 mb 0.00 in0.0 mm 0.00 in0.0 mm 0.12 in3.0 mm
10:40 AM 35.0°F1.7°C 31.8°F-0.1°C 88% 8.0 mph WSW12.9 kmh WSW -- 30.21 in1023.0 mb 0.00 in0.0 mm 0.00 in0.0 mm 0.12 in3.0 mm
10:35 AM 35.0°F1.7°C 31.8°F-0.1°C 88% 5.0 mph WSW8.0 kmh WSW -- 30.20 in1022.7 mb 0.00 in0.0 mm 0.00 in0.0 mm 0.12 in3.0 mm
10:30 AM 35.1°F1.7°C 32.2°F0.1°C 89% 5.0 mph SW8.0 kmh SW -- 30.20 in1022.7 mb 0.00 in0.0 mm 0.00 in0.0 mm 0.12 in3.0 mm
10:25 AM 35.1°F1.7°C 32.2°F0.1°C 89% 7.0 mph WSW11.3 kmh WSW -- 30.20 in1022.7 mb 0.00 in0.0 mm 0.00 in0.0 mm 0.12 in3.0 mm
10:20 AM 35.1°F1.7°C 32.2°F0.1°C 89% 9.0 mph WSW14.5 kmh WSW -- 30.20 in1022.7 mb 0.00 in0.0 mm 0.00 in0.0 mm 0.12 in3.0 mm
10:15 AM 35.2°F1.8°C 32.3°F0.2°C 89% 4.0 mph W6.4 kmh W -- 30.20 in1022.7 mb 0.01 in0.3 mm 0.00 in0.0 mm 0.12 in3.0 mm
10:10 AM 35.2°F1.8°C 32.3°F0.2°C 89% 6.0 mph WSW9.7 kmh WSW -- 30.19 in1022.4 mb 0.01 in0.3 mm 0.00 in0.0 mm 0.12 in3.0 mm
10:05 AM 35.2°F1.8°C 32.3°F0.2°C 89% 3.0 mph W4.8 kmh W 14.0 mph22.5 kmh 30.19 in1022.4 mb 0.01 in0.3 mm 0.00 in0.0 mm 0.12 in3.0 mm
10:00 AM 35.3°F1.8°C 32.4°F0.2°C 89% 6.0 mph W9.7 kmh W 14.0 mph22.5 kmh 30.19 in1022.4 mb 0.01 in0.3 mm 0.00 in0.0 mm 0.12 in3.0 mm
09:55 AM 35.3°F1.8°C 32.1°F0.1°C 88% 11.0 mph WSW17.7 kmh WSW -- 30.18 in1022.0 mb 0.01 in0.3 mm 0.00 in0.0 mm 0.12 in3.0 mm
09:50 AM 35.4°F1.9°C 32.2°F0.1°C 88% 5.0 mph W8.0 kmh W -- 30.18 in1022.0 mb 0.01 in0.3 mm 0.00 in0.0 mm 0.12 in3.0 mm
09:45 AM 35.5°F1.9°C 32.3°F0.2°C 88% 7.0 mph W11.3 kmh W -- 30.18 in1022.0 mb 0.01 in0.3 mm 0.00 in0.0 mm 0.12 in3.0 mm
09:40 AM 35.5°F1.9°C 32.3°F0.2°C 88% 12.0 mph SW19.3 kmh SW -- 30.17 in1021.7 mb 0.01 in0.3 mm 0.00 in0.0 mm 0.12 in3.0 mm
09:35 AM 35.5°F1.9°C 32.3°F0.2°C 88% 10.0 mph WSW16.1 kmh WSW -- 30.18 in1022.0 mb 0.01 in0.3 mm 0.00 in0.0 mm 0.12 in3.0 mm
09:30 AM 35.6°F2.0°C 32.4°F0.2°C 88% 7.0 mph W11.3 kmh W -- 30.17 in1021.7 mb 0.01 in0.3 mm 0.00 in0.0 mm 0.12 in3.0 mm
09:25 AM 35.6°F2.0°C 32.7°F0.4°C 89% 17.0 mph W27.4 kmh W -- 30.17 in1021.7 mb 0.01 in0.3 mm 0.00 in0.0 mm 0.12 in3.0 mm
09:20 AM 35.5°F1.9°C 32.6°F0.3°C 89% 9.0 mph WSW14.5 kmh WSW -- 30.17 in1021.7 mb 0.01 in0.3 mm 0.12 in3.0 mm 0.12 in3.0 mm
09:15 AM 35.6°F2.0°C 32.7°F0.4°C 89% 7.0 mph W11.3 kmh W 17.0 mph27.4 kmh 30.17 in1021.7 mb 0.00 in0.0 mm 0.00 in0.0 mm 0.11 in2.8 mm
09:10 AM 35.6°F2.0°C 32.7°F0.4°C 89% 14.0 mph WSW22.5 kmh WSW 17.0 mph27.4 kmh 30.17 in1021.7 mb 0.00 in0.0 mm 0.00 in0.0 mm 0.11 in2.8 mm
09:05 AM 35.9°F2.2°C 33.0°F0.6°C 89% 5.0 mph W8.0 kmh W -- 30.16 in1021.3 mb 0.00 in0.0 mm 0.00 in0.0 mm 0.11 in2.8 mm
09:00 AM 35.9°F2.2°C 33.0°F0.6°C 89% 2.0 mph SW3.2 kmh SW -- 30.16 in1021.3 mb 0.00 in0.0 mm 0.00 in0.0 mm 0.11 in2.8 mm
08:55 AM 36.0°F2.2°C 33.1°F0.6°C 89% 5.0 mph WSW8.0 kmh WSW -- 30.17 in1021.7 mb 0.00 in0.0 mm 0.00 in0.0 mm 0.11 in2.8 mm
08:50 AM 36.0°F2.2°C 33.1°F0.6°C 89% 2.0 mph WSW3.2 kmh WSW -- 30.16 in1021.3 mb 0.00 in0.0 mm 0.00 in0.0 mm 0.11 in2.8 mm
08:45 AM 36.0°F2.2°C 33.1°F0.6°C 89% 5.0 mph WSW8.0 kmh WSW -- 30.16 in1021.3 mb 0.00 in0.0 mm 0.00 in0.0 mm 0.11 in2.8 mm
08:40 AM 36.1°F2.3°C 33.2°F0.7°C 89% 8.0 mph SW12.9 kmh SW -- 30.16 in1021.3 mb 0.00 in0.0 mm 0.00 in0.0 mm 0.11 in2.8 mm
08:35 AM 36.1°F2.3°C 33.2°F0.7°C 89% 5.0 mph W8.0 kmh W -- 30.15 in1021.0 mb 0.00 in0.0 mm 0.00 in0.0 mm 0.11 in2.8 mm
08:30 AM 36.0°F2.2°C 33.1°F0.6°C 89% 4.0 mph SW6.4 kmh SW -- 30.15 in1021.0 mb 0.00 in0.0 mm 0.00 in0.0 mm 0.11 in2.8 mm
08:25 AM 35.9°F2.2°C 33.0°F0.6°C 89% 4.0 mph WSW6.4 kmh WSW 5.0 mph8.0 kmh 30.15 in1021.0 mb 0.00 in0.0 mm 0.00 in0.0 mm 0.11 in2.8 mm
08:20 AM 35.8°F2.1°C 32.9°F0.5°C 89% 3.0 mph WSW4.8 kmh WSW 5.0 mph8.0 kmh 30.15 in1021.0 mb 0.00 in0.0 mm 0.00 in0.0 mm 0.11 in2.8 mm
08:15 AM 35.8°F2.1°C 32.9°F0.5°C 89% Calm Calm -- 30.15 in1021.0 mb 0.00 in0.0 mm 0.00 in0.0 mm 0.11 in2.8 mm
08:10 AM 35.7°F2.1°C 32.8°F0.4°C 89% Calm Calm -- 30.15 in1021.0 mb 0.00 in0.0 mm 0.00 in0.0 mm 0.11 in2.8 mm
08:05 AM 35.7°F2.1°C 32.8°F0.4°C 89% Calm Calm -- 30.15 in1021.0 mb 0.00 in0.0 mm 0.00 in0.0 mm 0.11 in2.8 mm
08:00 AM 35.6°F2.0°C 32.7°F0.4°C 89% Calm Calm -- 30.15 in1021.0 mb 0.00 in0.0 mm 0.00 in0.0 mm 0.11 in2.8 mm
07:55 AM 35.5°F1.9°C 32.6°F0.3°C 89% Calm Calm -- 30.15 in1021.0 mb 0.00 in0.0 mm 0.00 in0.0 mm 0.11 in2.8 mm
07:50 AM 35.5°F1.9°C 32.6°F0.3°C 89% Calm Calm -- 30.15 in1021.0 mb 0.00 in0.0 mm 0.00 in0.0 mm 0.11 in2.8 mm
07:45 AM 35.6°F2.0°C 32.7°F0.4°C 89% Calm Calm -- 30.15 in1021.0 mb 0.00 in0.0 mm 0.00 in0.0 mm 0.11 in2.8 mm
07:40 AM 35.7°F2.1°C 32.8°F0.4°C 89% 2.0 mph SW3.2 kmh SW -- 30.15 in1021.0 mb 0.00 in0.0 mm 0.00 in0.0 mm 0.11 in2.8 mm
07:35 AM 35.6°F2.0°C 32.7°F0.4°C 89% 2.0 mph SSW3.2 kmh SSW 6.0 mph9.7 kmh 30.15 in1021.0 mb 0.00 in0.0 mm 0.00 in0.0 mm 0.11 in2.8 mm
07:30 AM 35.5°F1.9°C 32.6°F0.3°C 89% 2.0 mph SSW3.2 kmh SSW 6.0 mph9.7 kmh 30.14 in1020.7 mb 0.00 in0.0 mm 0.00 in0.0 mm 0.11 in2.8 mm
07:25 AM 35.5°F1.9°C 32.6°F0.3°C 89% 1.0 mph S1.6 kmh S -- 30.14 in1020.7 mb 0.00 in0.0 mm 0.00 in0.0 mm 0.11 in2.8 mm
07:20 AM 35.4°F1.9°C 32.5°F0.3°C 89% Calm Calm -- 30.14 in1020.7 mb 0.00 in0.0 mm 0.00 in0.0 mm 0.11 in2.8 mm
07:15 AM 35.4°F1.9°C 32.5°F0.3°C 89% Calm Calm -- 30.14 in1020.7 mb 0.00 in0.0 mm 0.00 in0.0 mm 0.11 in2.8 mm
07:10 AM 35.4°F1.9°C 32.5°F0.3°C 89% Calm Calm -- 30.14 in1020.7 mb 0.00 in0.0 mm 0.00 in0.0 mm 0.11 in2.8 mm
07:05 AM 35.3°F1.8°C 32.4°F0.2°C 89% Calm Calm -- 30.13 in1020.3 mb 0.00 in0.0 mm 0.00 in0.0 mm 0.11 in2.8 mm
07:00 AM 35.3°F1.8°C 32.4°F0.2°C 89% 3.0 mph S4.8 kmh S -- 30.13 in1020.3 mb 0.00 in0.0 mm 0.00 in0.0 mm 0.11 in2.8 mm
06:55 AM 35.2°F1.8°C 32.3°F0.2°C 89% 5.0 mph SSE8.0 kmh SSE -- 30.13 in1020.3 mb 0.00 in0.0 mm 0.00 in0.0 mm 0.11 in2.8 mm
06:50 AM 35.2°F1.8°C 32.3°F0.2°C 89% 5.0 mph SSE8.0 kmh SSE -- 30.13 in1020.3 mb 0.00 in0.0 mm 0.00 in0.0 mm 0.11 in2.8 mm
06:45 AM 35.1°F1.7°C 32.2°F0.1°C 89% 5.0 mph S8.0 kmh S 6.0 mph9.7 kmh 30.14 in1020.7 mb 0.00 in0.0 mm 0.00 in0.0 mm 0.11 in2.8 mm
06:40 AM 35.1°F1.7°C 32.2°F0.1°C 89% 2.0 mph SSE3.2 kmh SSE 6.0 mph9.7 kmh 30.14 in1020.7 mb 0.00 in0.0 mm 0.00 in0.0 mm 0.11 in2.8 mm
06:35 AM 35.0°F1.7°C 32.1°F0.1°C 89% 5.0 mph SSE8.0 kmh SSE -- 30.14 in1020.7 mb 0.00 in0.0 mm 0.00 in0.0 mm 0.11 in2.8 mm
06:30 AM 35.0°F1.7°C 32.1°F0.1°C 89% 3.0 mph SSE4.8 kmh SSE -- 30.14 in1020.7 mb 0.01 in0.3 mm 0.00 in0.0 mm 0.11 in2.8 mm
06:25 AM 35.0°F1.7°C 32.1°F0.1°C 89% 2.0 mph SSE3.2 kmh SSE -- 30.14 in1020.7 mb 0.01 in0.3 mm 0.00 in0.0 mm 0.11 in2.8 mm
06:20 AM 35.0°F1.7°C 32.1°F0.1°C 89% 2.0 mph SSE3.2 kmh SSE -- 30.14 in1020.7 mb 0.01 in0.3 mm 0.00 in0.0 mm 0.11 in2.8 mm
06:15 AM 35.0°F1.7°C 32.1°F0.1°C 89% 3.0 mph SSE4.8 kmh SSE -- 30.14 in1020.7 mb 0.01 in0.3 mm 0.00 in0.0 mm 0.11 in2.8 mm
06:10 AM 35.0°F1.7°C 32.1°F0.1°C 89% 2.0 mph SSE3.2 kmh SSE -- 30.15 in1021.0 mb 0.02 in0.5 mm 0.00 in0.0 mm 0.11 in2.8 mm
06:05 AM 35.0°F1.7°C 32.1°F0.1°C 89% Calm Calm -- 30.15 in1021.0 mb 0.02 in0.5 mm 0.00 in0.0 mm 0.11 in2.8 mm
06:00 AM 34.9°F1.6°C 32.0°F0.0°C 89% Calm Calm -- 30.15 in1021.0 mb 0.02 in0.5 mm 0.00 in0.0 mm 0.11 in2.8 mm
05:55 AM 34.9°F1.6°C 32.0°F0.0°C 89% Calm Calm -- 30.15 in1021.0 mb 0.03 in0.8 mm 0.00 in0.0 mm 0.11 in2.8 mm
05:50 AM 34.8°F1.6°C 31.6°F-0.2°C 88% Calm Calm -- 30.15 in1021.0 mb 0.03 in0.8 mm 0.00 in0.0 mm 0.11 in2.8 mm
05:45 AM 34.9°F1.6°C 32.0°F0.0°C 89% Calm Calm -- 30.15 in1021.0 mb 0.03 in0.8 mm 0.00 in0.0 mm 0.11 in2.8 mm
05:40 AM 34.9°F1.6°C 31.7°F-0.2°C 88% Calm Calm -- 30.14 in1020.7 mb 0.04 in1.0 mm 0.00 in0.0 mm 0.11 in2.8 mm
05:35 AM 34.8°F1.6°C 31.6°F-0.2°C 88% Calm Calm -- 30.15 in1021.0 mb 0.04 in1.0 mm 0.12 in3.0 mm 0.11 in2.8 mm
05:30 AM 34.8°F1.6°C 31.6°F-0.2°C 88% Calm Calm -- 30.16 in1021.3 mb 0.03 in0.8 mm 0.00 in0.0 mm 0.10 in2.5 mm
05:25 AM 34.7°F1.5°C 31.5°F-0.3°C 88% Calm Calm -- 30.16 in1021.3 mb 0.04 in1.0 mm 0.00 in0.0 mm 0.10 in2.5 mm
05:20 AM 34.7°F1.5°C 31.5°F-0.3°C 88% Calm Calm -- 30.16 in1021.3 mb 0.04 in1.0 mm 0.00 in0.0 mm 0.10 in2.5 mm
05:15 AM 34.7°F1.5°C 31.5°F-0.3°C 88% Calm Calm -- 30.16 in1021.3 mb 0.04 in1.0 mm 0.00 in0.0 mm 0.10 in2.5 mm
05:10 AM 34.7°F1.5°C 31.5°F-0.3°C 88% Calm Calm -- 30.17 in1021.7 mb 0.04 in1.0 mm 0.00 in0.0 mm 0.09 in2.3 mm
05:05 AM 34.7°F1.5°C 31.5°F-0.3°C 88% Calm Calm -- 30.17 in1021.7 mb 0.04 in1.0 mm 0.00 in0.0 mm 0.09 in2.3 mm
05:00 AM 34.7°F1.5°C 31.5°F-0.3°C 88% Calm Calm -- 30.17 in1021.7 mb 0.04 in1.0 mm 0.00 in0.0 mm 0.09 in2.3 mm
04:55 AM 34.7°F1.5°C 31.5°F-0.3°C 88% Calm Calm -- 30.17 in1021.7 mb 0.04 in1.0 mm 0.00 in0.0 mm 0.08 in2.0 mm
04:50 AM 34.7°F1.5°C 31.5°F-0.3°C 88% Calm Calm -- 30.17 in1021.7 mb 0.04 in1.0 mm 0.00 in0.0 mm 0.08 in2.0 mm
04:45 AM 34.7°F1.5°C 31.5°F-0.3°C 88% Calm Calm -- 30.18 in1022.0 mb 0.04 in1.0 mm 0.00 in0.0 mm 0.08 in2.0 mm
04:40 AM 34.7°F1.5°C 31.5°F-0.3°C 88% 1.0 mph S1.6 kmh S -- 30.18 in1022.0 mb 0.04 in1.0 mm 0.00 in0.0 mm 0.07 in1.8 mm
04:35 AM 34.7°F1.5°C 31.8°F-0.1°C 89% 2.0 mph S3.2 kmh S -- 30.18 in1022.0 mb 0.04 in1.0 mm 0.00 in0.0 mm 0.07 in1.8 mm
04:30 AM 34.7°F1.5°C 31.8°F-0.1°C 89% 2.0 mph S3.2 kmh S -- 30.18 in1022.0 mb 0.05 in1.3 mm 0.00 in0.0 mm 0.07 in1.8 mm
04:25 AM 34.7°F1.5°C 31.5°F-0.3°C 88% 3.0 mph SSE4.8 kmh SSE -- 30.17 in1021.7 mb 0.05 in1.3 mm 0.00 in0.0 mm 0.06 in1.5 mm
04:20 AM 34.6°F1.4°C 31.4°F-0.3°C 88% 1.0 mph SSE1.6 kmh SSE -- 30.16 in1021.3 mb 0.05 in1.3 mm 0.00 in0.0 mm 0.06 in1.5 mm
04:15 AM 34.6°F1.4°C 31.4°F-0.3°C 88% 3.0 mph SSE4.8 kmh SSE 6.0 mph9.7 kmh 30.17 in1021.7 mb 0.05 in1.3 mm 0.12 in3.0 mm 0.06 in1.5 mm
04:10 AM 34.6°F1.4°C 31.4°F-0.3°C 88% 6.0 mph SSE9.7 kmh SSE 6.0 mph9.7 kmh 30.18 in1022.0 mb 0.04 in1.0 mm 0.00 in0.0 mm 0.05 in1.3 mm
04:05 AM 34.5°F1.4°C 31.3°F-0.4°C 88% 3.0 mph SSE4.8 kmh SSE -- 30.17 in1021.7 mb 0.04 in1.0 mm 0.00 in0.0 mm 0.05 in1.3 mm
04:00 AM 34.5°F1.4°C 31.3°F-0.4°C 88% 3.0 mph SSE4.8 kmh SSE -- 30.18 in1022.0 mb 0.04 in1.0 mm 0.01 in0.3 mm 0.05 in1.3 mm
03:55 AM 34.4°F1.3°C 31.2°F-0.4°C 88% 3.0 mph SE4.8 kmh SE -- 30.17 in1021.7 mb 0.03 in0.8 mm 0.00 in0.0 mm 0.04 in1.0 mm
03:50 AM 34.4°F1.3°C 31.2°F-0.4°C 88% 1.0 mph SE1.6 kmh SE -- 30.17 in1021.7 mb 0.03 in0.8 mm 0.00 in0.0 mm 0.04 in1.0 mm
03:45 AM 34.4°F1.3°C 31.2°F-0.4°C 88% 5.0 mph SE8.0 kmh SE -- 30.18 in1022.0 mb 0.03 in0.8 mm 0.12 in3.0 mm 0.04 in1.0 mm
03:40 AM 34.3°F1.3°C 31.1°F-0.5°C 88% 4.0 mph SE6.4 kmh SE -- 30.18 in1022.0 mb 0.02 in0.5 mm 0.00 in0.0 mm 0.03 in0.8 mm
03:35 AM 34.2°F1.2°C 31.0°F-0.6°C 88% 6.0 mph SE9.7 kmh SE -- 30.18 in1022.0 mb 0.03 in0.8 mm 0.12 in3.0 mm 0.03 in0.8 mm
03:30 AM 34.1°F1.2°C 30.9°F-0.6°C 88% 4.0 mph SE6.4 kmh SE -- 30.18 in1022.0 mb 0.02 in0.5 mm 0.12 in3.0 mm 0.02 in0.5 mm
03:25 AM 34.0°F1.1°C 30.8°F-0.7°C 88% 4.0 mph SE6.4 kmh SE 8.0 mph12.9 kmh 30.18 in1022.0 mb 0.01 in0.3 mm 0.00 in0.0 mm 0.01 in0.3 mm
03:20 AM 34.0°F1.1°C 30.8°F-0.7°C 88% 4.0 mph SE6.4 kmh SE 8.0 mph12.9 kmh 30.18 in1022.0 mb 0.01 in0.3 mm 0.00 in0.0 mm 0.01 in0.3 mm
03:15 AM 33.9°F1.1°C 30.7°F-0.7°C 88% 3.0 mph SE4.8 kmh SE -- 30.19 in1022.4 mb 0.01 in0.3 mm 0.00 in0.0 mm 0.01 in0.3 mm
03:10 AM 33.8°F1.0°C 30.6°F-0.8°C 88% 3.0 mph SE4.8 kmh SE -- 30.19 in1022.4 mb 0.01 in0.3 mm 0.00 in0.0 mm 0.01 in0.3 mm
03:05 AM 33.7°F0.9°C 30.5°F-0.8°C 88% 3.0 mph SSE4.8 kmh SSE -- 30.20 in1022.7 mb 0.01 in0.3 mm 0.00 in0.0 mm 0.01 in0.3 mm
03:00 AM 33.7°F0.9°C 30.5°F-0.8°C 88% 4.0 mph SE6.4 kmh SE -- 30.20 in1022.7 mb 0.01 in0.3 mm 0.00 in0.0 mm 0.01 in0.3 mm
02:55 AM 33.7°F0.9°C 30.5°F-0.8°C 88% 4.0 mph SE6.4 kmh SE -- 30.19 in1022.4 mb 0.01 in0.3 mm 0.00 in0.0 mm 0.01 in0.3 mm
02:50 AM 33.6°F0.9°C 30.4°F-0.9°C 88% 4.0 mph ESE6.4 kmh ESE -- 30.20 in1022.7 mb 0.01 in0.3 mm 0.00 in0.0 mm 0.01 in0.3 mm
02:45 AM 33.6°F0.9°C 30.4°F-0.9°C 88% 2.0 mph SE3.2 kmh SE -- 30.20 in1022.7 mb 0.01 in0.3 mm 0.00 in0.0 mm 0.01 in0.3 mm
02:40 AM 33.5°F0.8°C 30.3°F-0.9°C 88% 4.0 mph ESE6.4 kmh ESE -- 30.20 in1022.7 mb 0.01 in0.3 mm 0.12 in3.0 mm 0.01 in0.3 mm
02:35 AM 33.5°F0.8°C 30.3°F-0.9°C 88% 8.0 mph SE12.9 kmh SE 10.0 mph16.1 kmh 30.21 in1023.0 mb 0.00 in0.0 mm 0.00 in0.0 mm 0.00 in0.0 mm
02:30 AM 33.5°F0.8°C 30.3°F-0.9°C 88% 5.0 mph SE8.0 kmh SE 10.0 mph16.1 kmh 30.21 in1023.0 mb 0.00 in0.0 mm 0.00 in0.0 mm 0.00 in0.0 mm
02:25 AM 33.4°F0.8°C 30.2°F-1.0°C 88% 5.0 mph E8.0 kmh E -- 30.21 in1023.0 mb 0.00 in0.0 mm 0.00 in0.0 mm 0.00 in0.0 mm
02:20 AM 33.4°F0.8°C 30.2°F-1.0°C 88% 5.0 mph SE8.0 kmh SE -- 30.22 in1023.4 mb 0.00 in0.0 mm 0.00 in0.0 mm 0.00 in0.0 mm
02:15 AM 33.3°F0.7°C 30.1°F-1.1°C 88% 1.0 mph SE1.6 kmh SE -- 30.23 in1023.7 mb 0.00 in0.0 mm 0.00 in0.0 mm 0.00 in0.0 mm
02:10 AM 33.4°F0.8°C 30.5°F-0.8°C 89% 4.0 mph ESE6.4 kmh ESE -- 30.23 in1023.7 mb 0.00 in0.0 mm 0.00 in0.0 mm 0.00 in0.0 mm
02:05 AM 33.3°F0.7°C 30.4°F-0.9°C 89% 9.0 mph ESE14.5 kmh ESE -- 30.23 in1023.7 mb 0.00 in0.0 mm 0.00 in0.0 mm 0.00 in0.0 mm
02:00 AM 33.2°F0.7°C 30.3°F-0.9°C 89% 6.0 mph E9.7 kmh E -- 30.24 in1024.0 mb 0.00 in0.0 mm 0.00 in0.0 mm 0.00 in0.0 mm
01:55 AM 33.2°F0.7°C 30.3°F-0.9°C 89% 4.0 mph ESE6.4 kmh ESE -- 30.25 in1024.4 mb 0.00 in0.0 mm 0.00 in0.0 mm 0.00 in0.0 mm
01:50 AM 33.2°F0.7°C 30.3°F-0.9°C 89% 3.0 mph SE4.8 kmh SE -- 30.26 in1024.7 mb 0.00 in0.0 mm 0.00 in0.0 mm 0.00 in0.0 mm
01:45 AM 33.2°F0.7°C 30.3°F-0.9°C 89% 3.0 mph SE4.8 kmh SE 9.0 mph14.5 kmh 30.27 in1025.1 mb 0.00 in0.0 mm 0.00 in0.0 mm 0.00 in0.0 mm
01:40 AM 33.2°F0.7°C 30.3°F-0.9°C 89% 3.0 mph ESE4.8 kmh ESE 9.0 mph14.5 kmh 30.27 in1025.1 mb 0.00 in0.0 mm 0.00 in0.0 mm 0.00 in0.0 mm
01:35 AM 33.2°F0.7°C 30.3°F-0.9°C 89% 5.0 mph SE8.0 kmh SE -- 30.27 in1025.1 mb 0.00 in0.0 mm 0.00 in0.0 mm 0.00 in0.0 mm
01:30 AM 33.2°F0.7°C 30.3°F-0.9°C 89% 8.0 mph SE12.9 kmh SE -- 30.27 in1025.1 mb 0.00 in0.0 mm 0.00 in0.0 mm 0.00 in0.0 mm
01:25 AM 33.3°F0.7°C 30.4°F-0.9°C 89% 4.0 mph SE6.4 kmh SE -- 30.27 in1025.1 mb 0.00 in0.0 mm 0.00 in0.0 mm 0.00 in0.0 mm
01:20 AM 33.2°F0.7°C 30.3°F-0.9°C 89% 4.0 mph ESE6.4 kmh ESE -- 30.27 in1025.1 mb 0.00 in0.0 mm 0.00 in0.0 mm 0.00 in0.0 mm
01:15 AM 33.1°F0.6°C 29.9°F-1.2°C 88% 7.0 mph SE11.3 kmh SE -- 30.28 in1025.4 mb 0.00 in0.0 mm 0.00 in0.0 mm 0.00 in0.0 mm
01:10 AM 33.1°F0.6°C 29.9°F-1.2°C 88% 2.0 mph ESE3.2 kmh ESE -- 30.29 in1025.7 mb 0.00 in0.0 mm 0.00 in0.0 mm 0.00 in0.0 mm
01:05 AM 33.0°F0.6°C 29.8°F-1.2°C 88% 3.0 mph SE4.8 kmh SE -- 30.29 in1025.7 mb 0.00 in0.0 mm 0.00 in0.0 mm 0.00 in0.0 mm
01:00 AM 33.0°F0.6°C 29.8°F-1.2°C 88% 5.0 mph SE8.0 kmh SE -- 30.30 in1026.1 mb 0.00 in0.0 mm 0.00 in0.0 mm 0.00 in0.0 mm
12:55 AM 32.9°F0.5°C 29.7°F-1.3°C 88% 1.0 mph SE1.6 kmh SE 6.0 mph9.7 kmh 30.31 in1026.4 mb 0.00 in0.0 mm 0.00 in0.0 mm 0.00 in0.0 mm
12:50 AM 32.8°F0.4°C 29.6°F-1.3°C 88% 4.0 mph ESE6.4 kmh ESE 6.0 mph9.7 kmh 30.32 in1026.8 mb 0.00 in0.0 mm 0.00 in0.0 mm 0.00 in0.0 mm
12:45 AM 32.8°F0.4°C 29.6°F-1.3°C 88% 2.0 mph SE3.2 kmh SE -- 30.31 in1026.4 mb 0.00 in0.0 mm 0.00 in0.0 mm 0.00 in0.0 mm
12:40 AM 32.7°F0.4°C 29.5°F-1.4°C 88% Calm Calm -- 30.32 in1026.8 mb 0.00 in0.0 mm 0.00 in0.0 mm 0.00 in0.0 mm
12:35 AM 32.6°F0.3°C 29.4°F-1.4°C 88% Calm Calm -- 30.32 in1026.8 mb 0.00 in0.0 mm 0.00 in0.0 mm 0.00 in0.0 mm
12:30 AM 32.5°F0.3°C 29.3°F-1.5°C 88% 3.0 mph SE4.8 kmh SE -- 30.33 in1027.1 mb 0.00 in0.0 mm 0.00 in0.0 mm 0.00 in0.0 mm
12:25 AM 32.5°F0.3°C 29.3°F-1.5°C 88% 3.0 mph SE4.8 kmh SE -- 30.34 in1027.4 mb 0.00 in0.0 mm 0.00 in0.0 mm 0.00 in0.0 mm
12:20 AM 32.4°F0.2°C 29.3°F-1.5°C 88% 3.0 mph SE4.8 kmh SE -- 30.33 in1027.1 mb 0.00 in0.0 mm 0.00 in0.0 mm 0.00 in0.0 mm
12:15 AM 32.3°F0.2°C 29.2°F-1.6°C 88% 3.0 mph ESE4.8 kmh ESE -- 30.33 in1027.1 mb 0.00 in0.0 mm 0.00 in0.0 mm 0.00 in0.0 mm
12:10 AM 32.3°F0.2°C 29.2°F-1.6°C 88% Calm Calm -- 30.34 in1027.4 mb 0.00 in0.0 mm 0.00 in0.0 mm 0.00 in0.0 mm
12:05 AM 32.2°F0.1°C 29.1°F-1.6°C 88% Calm Calm 5.0 mph8.0 kmh 30.35 in1027.8 mb 0.00 in0.0 mm 0.00 in0.0 mm 0.00 in0.0 mm
12:00 AM 32.1°F0.1°C 29.0°F-1.7°C 88% Calm Calm 5.0 mph8.0 kmh 30.36 in1028.1 mb 0.00 in0.0 mm 0.00 in0.0 mm 0.00 in0.0 mm